createdAt,value
2018-09-03T00:02:20.850Z,20.21
2018-09-03T00:04:50.556Z,20.21
2018-09-03T00:07:19.980Z,20.16
2018-09-03T00:09:50.529Z,19.96
2018-09-03T00:12:21.025Z,20.05
2018-09-03T00:14:51.428Z,20.05
2018-09-03T00:17:20.855Z,20.06
2018-09-03T00:19:51.709Z,19.96
2018-09-03T00:22:21.653Z,20.02
2018-09-03T00:24:50.957Z,19.91
2018-09-03T00:27:20.377Z,19.88
2018-09-03T00:29:49.748Z,19.91
2018-09-03T00:32:23.385Z,19.95
2018-09-03T00:34:57.957Z,19.87
2018-09-03T00:38:35.444Z,19.88
2018-09-03T00:41:09.165Z,19.79
2018-09-03T00:43:42.877Z,19.77
2018-09-03T00:46:16.520Z,19.81
2018-09-03T00:48:44.941Z,19.88
2018-09-03T00:51:13.368Z,19.83
2018-09-03T00:53:41.771Z,19.87
2018-09-03T00:56:10.136Z,19.89
2018-09-03T00:58:38.477Z,19.92
2018-09-03T01:01:06.949Z,19.91
2018-09-03T01:03:35.305Z,19.80
2018-09-03T01:06:03.660Z,19.86
2018-09-03T01:08:32.057Z,19.85
2018-09-03T01:11:00.391Z,19.82
2018-09-03T01:13:29.137Z,19.91
2018-09-03T01:15:58.260Z,19.90
2018-09-03T01:18:27.272Z,19.87
2018-09-03T01:20:56.320Z,19.86
2018-09-03T01:23:24.645Z,19.83
2018-09-03T01:25:53.585Z,19.84
2018-09-03T01:28:22.065Z,19.84
2018-09-03T01:30:51.466Z,19.86
2018-09-03T01:33:19.786Z,19.86
2018-09-03T01:35:49.643Z,19.77
2018-09-03T01:38:18.160Z,19.78
2018-09-03T01:40:46.489Z,19.78
2018-09-03T01:43:14.809Z,19.75
2018-09-03T01:45:43.154Z,19.74
2018-09-03T01:48:11.561Z,19.78
2018-09-03T01:50:39.905Z,19.65
2018-09-03T01:53:08.253Z,19.62
2018-09-03T01:55:37.614Z,19.62
2018-09-03T01:58:06.124Z,19.59
2018-09-03T02:00:35.517Z,19.67
2018-09-03T02:03:03.848Z,19.71
2018-09-03T02:05:32.200Z,19.74
2018-09-03T02:08:00.590Z,19.69
2018-09-03T02:10:29.084Z,19.67
2018-09-03T02:12:58.009Z,19.66
2018-09-03T02:15:27.528Z,19.75
2018-09-03T02:17:56.360Z,19.65
2018-09-03T02:20:24.713Z,19.60
2018-09-03T02:22:53.041Z,19.64
2018-09-03T02:25:22.195Z,19.59
2018-09-03T02:27:51.141Z,19.64
2018-09-03T02:30:20.595Z,19.59
2018-09-03T02:32:50.008Z,19.58
2018-09-03T02:35:18.329Z,19.53
2018-09-03T02:37:46.693Z,19.47
2018-09-03T02:40:15.022Z,19.43
2018-09-03T02:42:43.433Z,19.31
2018-09-03T02:45:11.895Z,19.23
2018-09-03T02:47:40.348Z,19.18
2018-09-03T02:50:09.127Z,19.08
2018-09-03T02:52:38.497Z,19.08
2018-09-03T02:55:07.212Z,19.06
2018-09-03T02:57:35.548Z,18.98
2018-09-03T03:00:03.936Z,18.90
2018-09-03T03:02:32.257Z,18.83
2018-09-03T03:05:01.518Z,18.79
2018-09-03T03:07:29.872Z,18.88
2018-09-03T03:09:58.989Z,18.91
2018-09-03T03:12:28.648Z,18.87
2018-09-03T03:14:59.021Z,18.91
2018-09-03T03:17:27.505Z,18.95
2018-09-03T03:19:55.982Z,18.89
2018-09-03T03:22:24.300Z,18.89
2018-09-03T03:24:52.634Z,18.91
2018-09-03T03:27:21.817Z,18.85
2018-09-03T03:29:51.037Z,18.80
2018-09-03T03:32:20.578Z,18.89
2018-09-03T03:34:50.052Z,18.80
2018-09-03T03:37:18.396Z,18.84
2018-09-03T03:39:47.682Z,18.71
2018-09-03T03:42:16.089Z,18.85
2018-09-03T03:44:44.427Z,18.80
2018-09-03T03:47:12.801Z,18.82
2018-09-03T03:49:41.225Z,18.76
2018-09-03T03:52:09.553Z,18.78
2018-09-03T03:54:37.926Z,18.74
2018-09-03T03:57:06.332Z,18.69
2018-09-03T03:59:34.733Z,18.73
2018-09-03T04:02:04.508Z,18.61
2018-09-03T04:04:33.903Z,18.65
2018-09-03T04:07:03.135Z,18.53
2018-09-03T04:09:32.457Z,18.41
2018-09-03T04:12:01.711Z,18.41
2018-09-03T04:14:30.998Z,18.52
2018-09-03T04:17:00.360Z,18.49
2018-09-03T04:19:29.000Z,18.48
2018-09-03T04:21:59.499Z,18.46
2018-09-03T04:24:28.497Z,18.38
2018-09-03T04:26:58.817Z,18.35
2018-09-03T04:29:29.077Z,18.26
2018-09-03T04:31:57.476Z,18.30
2018-09-03T04:34:27.417Z,18.33
2018-09-03T04:36:57.268Z,18.26
2018-09-03T04:39:25.602Z,18.29
2018-09-03T04:41:54.108Z,18.26
2018-09-03T04:44:22.491Z,18.23
2018-09-03T04:46:52.731Z,18.25
2018-09-03T04:49:22.251Z,18.14
2018-09-03T04:51:52.624Z,18.30
2018-09-03T04:54:22.522Z,18.20
2018-09-03T04:56:52.097Z,18.24
2018-09-03T04:59:22.021Z,18.21
2018-09-03T05:01:50.428Z,18.21
2018-09-03T05:04:18.811Z,18.22
2018-09-03T05:06:48.059Z,18.28
2018-09-03T05:09:16.475Z,18.22
2018-09-03T05:11:45.913Z,18.20
2018-09-03T05:14:15.112Z,18.27
2018-09-03T05:16:44.448Z,18.20
2018-09-03T05:19:13.682Z,18.26
2018-09-03T05:21:42.884Z,18.30
2018-09-03T05:24:11.301Z,18.25
2018-09-03T05:26:39.662Z,18.30
2018-09-03T05:29:08.026Z,18.33
2018-09-03T05:31:38.454Z,18.33
2018-09-03T05:34:07.829Z,18.46
2018-09-03T05:36:37.502Z,18.37
2018-09-03T05:39:08.579Z,18.36
2018-09-03T05:41:37.844Z,18.36
2018-09-03T05:44:06.316Z,18.42
2018-09-03T05:46:35.893Z,18.44
2018-09-03T05:49:05.254Z,18.52
2018-09-03T05:51:34.599Z,18.56
2018-09-03T05:54:02.967Z,18.60
2018-09-03T05:56:31.340Z,18.69
2018-09-03T05:59:00.634Z,18.72
2018-09-03T06:01:30.002Z,18.77
2018-09-03T06:03:59.157Z,18.76
2018-09-03T06:06:29.273Z,18.82
2018-09-03T06:08:58.419Z,18.92
2018-09-03T06:11:27.861Z,18.93
2018-09-03T06:13:57.589Z,18.98
2018-09-03T06:16:25.990Z,19.08
2018-09-03T06:18:54.348Z,19.12
2018-09-03T06:21:22.769Z,19.37
2018-09-03T06:23:52.440Z,19.35
2018-09-03T06:26:21.272Z,19.36
2018-09-03T06:28:52.266Z,19.41
2018-09-03T06:31:23.140Z,19.41
2018-09-03T06:33:52.824Z,19.37
2018-09-03T06:36:22.198Z,19.37
2018-09-03T06:38:51.505Z,19.45
2018-09-03T06:41:20.475Z,19.50
2018-09-03T06:43:48.817Z,19.44
2018-09-03T06:46:17.209Z,19.40
2018-09-03T06:48:45.532Z,19.35
2018-09-03T06:51:14.757Z,19.37
2018-09-03T06:53:43.104Z,19.40
2018-09-03T06:56:11.441Z,19.44
2018-09-03T06:58:39.777Z,19.60
2018-09-03T07:01:08.155Z,19.79
2018-09-03T07:03:36.550Z,19.91
2018-09-03T07:06:05.046Z,20.18
2018-09-03T07:08:33.375Z,20.42
2018-09-03T07:11:01.737Z,20.45
2018-09-03T07:13:30.085Z,20.50
2018-09-03T07:15:59.495Z,20.51
2018-09-03T07:18:28.760Z,20.41
2018-09-03T07:20:57.656Z,20.56
2018-09-03T07:23:26.577Z,20.79
2018-09-03T07:25:54.904Z,20.91
2018-09-03T07:28:23.390Z,21.03
2018-09-03T07:30:52.339Z,21.07
2018-09-03T07:33:21.604Z,21.14
2018-09-03T07:35:53.024Z,21.17
2018-09-03T07:38:22.537Z,21.34
2018-09-03T07:40:52.565Z,21.40
2018-09-03T07:43:23.130Z,21.54
2018-09-03T07:45:53.057Z,21.82
2018-09-03T07:48:23.017Z,21.89
2018-09-03T07:50:52.032Z,21.84
2018-09-03T07:53:20.390Z,21.58
2018-09-03T07:55:49.831Z,21.58
2018-09-03T07:58:18.433Z,21.82
2018-09-03T08:00:46.911Z,22.03
2018-09-03T08:03:15.254Z,21.93
2018-09-03T08:05:43.584Z,22.04
2018-09-03T08:08:12.006Z,22.17
2018-09-03T08:10:40.393Z,22.33
2018-09-03T08:13:10.189Z,22.26
2018-09-03T08:15:39.554Z,22.19
2018-09-03T08:18:07.897Z,22.11
2018-09-03T08:20:36.332Z,21.90
2018-09-03T08:23:04.661Z,21.94
2018-09-03T08:25:34.010Z,21.94
2018-09-03T08:28:02.342Z,21.94
2018-09-03T08:30:30.781Z,21.90
2018-09-03T08:32:59.848Z,22.06
2018-09-03T08:35:29.340Z,22.04
2018-09-03T08:37:58.889Z,22.20
2018-09-03T08:40:27.677Z,22.45
2018-09-03T08:42:56.131Z,22.77
2018-09-03T08:45:24.542Z,22.99
2018-09-03T08:47:53.861Z,23.21
2018-09-03T08:50:24.686Z,23.44
2018-09-03T08:52:54.102Z,23.53
2018-09-03T08:55:22.757Z,23.87
2018-09-03T08:57:52.566Z,24.15
2018-09-03T09:00:22.930Z,24.32
2018-09-03T09:02:52.488Z,24.30
2018-09-03T09:05:21.836Z,24.20
2018-09-03T09:07:52.251Z,24.22
2018-09-03T09:10:21.352Z,24.20
2018-09-03T09:12:50.710Z,24.38
2018-09-03T09:15:19.752Z,24.56
2018-09-03T09:17:48.482Z,24.63
2018-09-03T09:20:16.812Z,24.51
2018-09-03T09:22:45.258Z,24.64
2018-09-03T09:25:14.554Z,24.67
2018-09-03T09:27:43.860Z,24.78
2018-09-03T09:30:12.581Z,24.72
2018-09-03T09:32:41.018Z,24.79
2018-09-03T09:35:09.445Z,24.96
2018-09-03T09:37:37.771Z,25.16
2018-09-03T09:40:06.110Z,25.06
2018-09-03T09:42:34.518Z,25.32
2018-09-03T09:45:04.299Z,25.25
2018-09-03T09:47:32.648Z,25.39
2018-09-03T09:50:01.168Z,25.66
2018-09-03T09:52:29.663Z,25.90
2018-09-03T09:54:58.568Z,25.78
2018-09-03T09:57:28.493Z,25.97
2018-09-03T09:59:57.837Z,26.05
2018-09-03T10:02:26.726Z,26.11
2018-09-03T10:04:55.113Z,26.12
2018-09-03T10:07:24.500Z,26.32
2018-09-03T10:09:52.914Z,26.24
2018-09-03T10:12:27.378Z,26.36
2018-09-03T10:14:55.836Z,26.17
2018-09-03T10:17:25.644Z,26.08
2018-09-03T10:19:54.100Z,26.11
2018-09-03T10:22:23.093Z,26.32
2018-09-03T10:24:52.127Z,26.39
2018-09-03T10:27:20.901Z,26.40
2018-09-03T10:29:49.805Z,26.30
2018-09-03T10:32:18.189Z,26.22
2018-09-03T10:34:46.729Z,25.93
2018-09-03T10:37:15.061Z,25.82
2018-09-03T10:39:44.400Z,25.91
2018-09-03T10:42:12.755Z,26.00
2018-09-03T10:44:41.090Z,26.15
2018-09-03T10:47:09.500Z,26.37
2018-09-03T10:49:37.972Z,26.72
2018-09-03T10:52:06.329Z,26.50
2018-09-03T10:54:34.668Z,26.34
2018-09-03T10:57:03.084Z,26.53
2018-09-03T10:59:31.425Z,26.95
2018-09-03T11:01:59.869Z,27.28
2018-09-03T11:04:29.161Z,27.22
2018-09-03T11:06:58.272Z,27.13
2018-09-03T11:09:27.646Z,26.85
2018-09-03T11:11:56.715Z,26.80
2018-09-03T11:14:25.050Z,26.86
2018-09-03T11:16:54.325Z,27.15
2018-09-03T11:19:27.450Z,27.12
2018-09-03T11:21:55.830Z,27.21
2018-09-03T11:24:24.353Z,27.05
2018-09-03T11:26:53.223Z,27.21
2018-09-03T11:29:22.838Z,27.22
2018-09-03T11:31:52.641Z,26.98
2018-09-03T11:34:22.740Z,26.94
2018-09-03T11:36:53.394Z,27.26
2018-09-03T11:39:23.018Z,27.46
2018-09-03T11:41:53.089Z,27.18
2018-09-03T11:44:22.204Z,27.26
2018-09-03T11:46:51.010Z,27.65
2018-09-03T11:49:19.675Z,27.74
2018-09-03T11:51:50.586Z,27.95
2018-09-03T11:54:20.257Z,27.96
2018-09-03T11:56:48.801Z,27.76
2018-09-03T11:59:17.171Z,28.07
2018-09-03T12:01:45.694Z,28.15
2018-09-03T12:04:14.106Z,28.16
2018-09-03T12:06:43.584Z,27.71
2018-09-03T12:09:12.888Z,27.58
2018-09-03T12:11:41.348Z,27.57
2018-09-03T12:14:21.317Z,27.50
2018-09-03T12:16:50.415Z,27.58
2018-09-03T12:19:18.741Z,27.31
2018-09-03T12:21:47.117Z,27.18
2018-09-03T12:24:16.359Z,27.33
2018-09-03T12:26:44.696Z,27.41
2018-09-03T12:29:14.013Z,27.47
2018-09-03T12:31:42.343Z,27.43
2018-09-03T12:34:10.714Z,27.42
2018-09-03T12:36:40.072Z,27.79
2018-09-03T12:39:10.806Z,28.02
2018-09-03T12:41:40.167Z,28.09
2018-09-03T12:44:09.570Z,28.05
2018-09-03T12:46:37.895Z,28.01
2018-09-03T12:49:06.313Z,27.88
2018-09-03T12:51:35.775Z,27.72
2018-09-03T12:54:04.140Z,27.82
2018-09-03T12:56:33.412Z,27.94
2018-09-03T12:59:02.752Z,27.96
2018-09-03T13:01:31.097Z,27.91
2018-09-03T13:03:59.432Z,27.95
2018-09-03T13:06:27.865Z,28.17
2018-09-03T13:08:57.358Z,28.37
2018-09-03T13:11:25.725Z,28.45
2018-09-03T13:13:55.334Z,28.61
2018-09-03T13:16:23.657Z,28.42
2018-09-03T13:18:52.909Z,28.18
2018-09-03T13:21:22.476Z,28.08
2018-09-03T13:23:52.896Z,27.77
2018-09-03T13:26:22.218Z,27.94
2018-09-03T13:28:52.048Z,28.05
2018-09-03T13:31:21.820Z,28.22
2018-09-03T13:33:51.686Z,28.36
2018-09-03T13:36:21.282Z,28.26
2018-09-03T13:38:50.734Z,28.09
2018-09-03T13:41:19.772Z,27.78
2018-09-03T13:43:48.173Z,27.49
2018-09-03T13:46:16.598Z,27.22
2018-09-03T13:48:45.458Z,27.20
2018-09-03T13:51:13.933Z,27.07
2018-09-03T13:53:42.273Z,27.08
2018-09-03T13:56:10.657Z,27.49
2018-09-03T13:58:38.973Z,27.76
2018-09-03T14:01:08.359Z,27.89
2018-09-03T14:03:37.768Z,27.99
2018-09-03T14:06:07.030Z,28.09
2018-09-03T14:08:36.244Z,28.26
2018-09-03T14:11:05.530Z,28.25
2018-09-03T14:13:34.964Z,28.13
2018-09-03T14:16:04.297Z,28.07
2018-09-03T14:18:33.585Z,27.85
2018-09-03T14:21:02.829Z,27.90
2018-09-03T14:23:31.156Z,28.00
2018-09-03T14:26:00.484Z,27.92
2018-09-03T14:28:29.523Z,28.01
2018-09-03T14:30:58.861Z,28.07
2018-09-03T14:33:28.911Z,28.05
2018-09-03T14:35:59.597Z,28.04
2018-09-03T14:38:29.917Z,28.14
2018-09-03T14:40:58.945Z,28.39
2018-09-03T14:43:29.292Z,28.31
2018-09-03T14:45:58.761Z,28.19
2018-09-03T14:48:29.278Z,28.15
2018-09-03T14:50:58.804Z,28.17
2018-09-03T14:53:29.141Z,28.13
2018-09-03T14:55:59.641Z,27.80
2018-09-03T14:58:28.845Z,27.57
2018-09-03T15:00:59.065Z,27.55
2018-09-03T15:03:29.402Z,27.55
2018-09-03T15:05:59.762Z,27.61
2018-09-03T15:08:29.191Z,27.48
2018-09-03T15:10:59.417Z,27.72
2018-09-03T15:13:29.961Z,27.92
2018-09-03T15:16:00.758Z,28.03
2018-09-03T15:18:30.170Z,28.08
2018-09-03T15:20:59.636Z,28.21
2018-09-03T15:23:29.640Z,28.34
2018-09-03T15:26:00.061Z,28.41
2018-09-03T15:28:29.277Z,28.42
2018-09-03T15:30:58.857Z,28.27
2018-09-03T15:33:29.057Z,28.25
2018-09-03T15:35:59.492Z,27.81
2018-09-03T15:38:29.391Z,27.39
2018-09-03T15:40:59.421Z,27.16
2018-09-03T15:43:29.458Z,27.10
2018-09-03T15:45:59.763Z,27.24
2018-09-03T15:48:29.046Z,27.44
2018-09-03T15:51:05.341Z,27.62
2018-09-03T15:53:33.717Z,27.85
2018-09-03T15:56:03.812Z,27.78
2018-09-03T15:58:32.249Z,27.52
2018-09-03T16:01:01.622Z,27.19
2018-09-03T16:03:30.882Z,26.80
2018-09-03T16:06:00.130Z,26.65
2018-09-03T16:08:30.846Z,26.40
2018-09-03T16:11:00.085Z,26.33
2018-09-03T16:13:30.742Z,26.26
2018-09-03T16:16:00.083Z,26.16
2018-09-03T16:18:29.627Z,26.16
2018-09-03T16:20:59.967Z,26.20
2018-09-03T16:23:29.358Z,26.24
2018-09-03T16:25:58.806Z,26.27
2018-09-03T16:28:28.335Z,26.31
2018-09-03T16:30:58.745Z,26.21
2018-09-03T16:33:28.843Z,26.23
2018-09-03T16:35:57.960Z,26.11
2018-09-03T16:38:26.943Z,25.92
2018-09-03T16:40:55.278Z,25.95
2018-09-03T16:43:23.605Z,25.74
2018-09-03T16:45:53.281Z,25.73
2018-09-03T16:48:22.601Z,25.63
2018-09-03T16:50:52.017Z,25.62
2018-09-03T16:53:21.882Z,25.58
2018-09-03T16:55:51.671Z,25.41
2018-09-03T16:58:21.113Z,25.23
2018-09-03T17:00:50.721Z,25.21
2018-09-03T17:03:19.683Z,25.15
2018-09-03T17:05:48.389Z,24.96
2018-09-03T17:08:17.816Z,25.05
2018-09-03T17:10:46.157Z,24.97
2018-09-03T17:13:14.484Z,24.99
2018-09-03T17:15:42.857Z,24.96
2018-09-03T17:18:11.190Z,24.85
2018-09-03T17:20:39.546Z,24.74
2018-09-03T17:23:07.874Z,24.59
2018-09-03T17:25:36.247Z,24.48
2018-09-03T17:28:04.617Z,24.35
2018-09-03T17:30:32.957Z,24.26
2018-09-03T17:33:02.101Z,24.22
2018-09-03T17:35:30.482Z,24.09
2018-09-03T17:38:03.370Z,24.01
2018-09-03T17:40:31.769Z,23.99
2018-09-03T17:43:00.366Z,23.95
2018-09-03T17:45:29.682Z,23.93
2018-09-03T17:47:58.905Z,23.82
2018-09-03T17:50:29.152Z,23.92
2018-09-03T17:52:58.031Z,23.92
2018-09-03T17:55:26.431Z,23.84
2018-09-03T17:57:54.770Z,23.59
2018-09-03T18:00:24.408Z,23.54
2018-09-03T18:02:53.279Z,23.35
2018-09-03T18:05:23.242Z,23.36
2018-09-03T18:07:53.483Z,23.27
2018-09-03T18:10:23.748Z,23.12
2018-09-03T18:12:53.505Z,23.16
2018-09-03T18:15:23.866Z,23.19
2018-09-03T18:17:52.977Z,23.07
2018-09-03T18:20:22.321Z,23.02
2018-09-03T18:22:52.164Z,22.98
2018-09-03T18:25:21.534Z,22.98
2018-09-03T18:27:50.458Z,22.98
2018-09-03T18:30:19.983Z,23.02
2018-09-03T18:32:48.269Z,22.92
2018-09-03T18:35:16.717Z,22.74
2018-09-03T18:37:45.157Z,22.57
2018-09-03T18:40:13.497Z,22.37
2018-09-03T18:42:42.822Z,22.23
2018-09-03T18:45:12.081Z,22.23
2018-09-03T18:47:40.485Z,22.11
2018-09-03T18:50:10.498Z,22.20
2018-09-03T18:52:39.038Z,22.17
2018-09-03T18:55:07.361Z,22.09
2018-09-03T18:57:35.697Z,22.13
2018-09-03T19:00:04.761Z,21.97
2018-09-03T19:02:33.066Z,21.73
2018-09-03T19:05:02.310Z,21.58
2018-09-03T19:07:30.705Z,21.46
2018-09-03T19:09:59.965Z,21.43
2018-09-03T19:12:29.378Z,21.40
2018-09-03T19:14:58.586Z,21.46
2018-09-03T19:17:28.108Z,21.37
2018-09-03T19:19:59.953Z,21.20
2018-09-03T19:22:28.912Z,21.27
2018-09-03T19:24:59.641Z,21.06
2018-09-03T19:27:29.143Z,20.94
2018-09-03T19:29:57.553Z,20.98
2018-09-03T19:32:25.881Z,21.12
2018-09-03T19:34:54.313Z,21.07
2018-09-03T19:37:22.943Z,21.12
2018-09-03T19:39:52.349Z,20.97
2018-09-03T19:42:21.853Z,21.16
2018-09-03T19:44:51.074Z,21.29
2018-09-03T19:47:19.410Z,21.30
2018-09-03T19:49:48.659Z,21.44
2018-09-03T19:52:16.996Z,21.29
2018-09-03T19:54:45.344Z,21.33
2018-09-03T19:57:13.788Z,21.30
2018-09-03T19:59:42.123Z,21.22
2018-09-03T20:02:10.479Z,21.24
2018-09-03T20:04:43.360Z,21.14
2018-09-03T20:07:11.877Z,21.17
2018-09-03T20:09:40.333Z,21.18
2018-09-03T20:12:08.673Z,21.22
2018-09-03T20:14:38.024Z,21.11
2018-09-03T20:17:06.447Z,21.03
2018-09-03T20:19:34.749Z,20.92
2018-09-03T20:22:03.186Z,20.91
2018-09-03T20:24:32.599Z,20.85
2018-09-03T20:27:00.947Z,20.68
2018-09-03T20:29:30.157Z,20.78
2018-09-03T20:31:59.476Z,20.53
2018-09-03T20:34:29.624Z,20.57
2018-09-03T20:36:58.921Z,20.59
2018-09-03T20:39:28.636Z,20.42
2018-09-03T20:41:58.154Z,20.42
2018-09-03T20:44:26.654Z,20.17
2018-09-03T20:46:56.002Z,20.10
2018-09-03T20:49:25.449Z,20.16
2018-09-03T20:51:54.625Z,20.16
2018-09-03T20:54:23.016Z,20.13
2018-09-03T20:56:52.361Z,19.87
2018-09-03T20:59:21.190Z,19.94
2018-09-03T21:01:50.702Z,19.79
2018-09-03T21:04:19.764Z,19.77
2018-09-03T21:06:48.727Z,19.75
2018-09-03T21:09:17.962Z,19.64
2018-09-03T21:11:46.611Z,19.61
2018-09-03T21:14:14.969Z,19.51
2018-09-03T21:16:43.321Z,19.36
2018-09-03T21:19:12.557Z,19.31
2018-09-03T21:21:40.908Z,19.35
2018-09-03T21:24:09.299Z,19.34
2018-09-03T21:26:37.638Z,19.23
2018-09-03T21:29:06.000Z,19.13
2018-09-03T21:31:34.348Z,19.10
2018-09-03T21:34:03.545Z,19.01
2018-09-03T21:36:34.043Z,18.96
2018-09-03T21:39:02.466Z,18.86
2018-09-03T21:41:30.789Z,18.89
2018-09-03T21:44:00.389Z,18.81
2018-09-03T21:46:30.987Z,18.78
2018-09-03T21:48:59.857Z,18.87
2018-09-03T21:51:30.702Z,18.68
2018-09-03T21:54:01.653Z,18.64
2018-09-03T21:56:35.016Z,18.57
2018-09-03T21:59:07.629Z,18.59
2018-09-03T22:01:36.688Z,18.57
2018-09-03T22:04:05.631Z,18.40
2018-09-03T22:06:34.978Z,18.32
2018-09-03T22:09:08.204Z,18.52
2018-09-03T22:11:38.356Z,18.41
2018-09-03T22:14:07.696Z,18.34
2018-09-03T22:16:40.220Z,18.34
2018-09-03T22:19:08.641Z,18.21
2018-09-03T22:21:37.006Z,18.16
2018-09-03T22:24:05.357Z,18.22
2018-09-03T22:26:33.746Z,18.20
2018-09-03T22:29:02.152Z,18.10
2018-09-03T22:31:30.954Z,18.05
2018-09-03T22:33:59.627Z,18.04
2018-09-03T22:36:30.316Z,18.05
2018-09-03T22:39:01.184Z,17.95
2018-09-03T22:41:30.727Z,18.00
2018-09-03T22:43:59.945Z,17.99
2018-09-03T22:46:29.712Z,18.03
2018-09-03T22:49:00.408Z,18.00
2018-09-03T22:51:29.132Z,18.02
2018-09-03T22:53:58.233Z,17.98
2018-09-03T22:56:26.628Z,18.03
2018-09-03T22:58:55.846Z,17.89
2018-09-03T23:01:25.144Z,17.99
2018-09-03T23:03:53.491Z,17.99
2018-09-03T23:06:22.949Z,17.89
2018-09-03T23:08:53.161Z,17.91
2018-09-03T23:11:22.089Z,17.86
2018-09-03T23:13:51.121Z,17.85
2018-09-03T23:16:19.465Z,17.79
2018-09-03T23:18:47.812Z,17.67
2018-09-03T23:21:16.232Z,17.61
2018-09-03T23:23:45.438Z,17.60
2018-09-03T23:26:13.776Z,17.60
2018-09-03T23:28:42.118Z,17.63
2018-09-03T23:31:10.452Z,17.62
2018-09-03T23:33:38.801Z,17.62
2018-09-03T23:36:07.208Z,17.63
2018-09-03T23:38:35.548Z,17.49
2018-09-03T23:41:03.883Z,17.45
2018-09-03T23:43:32.225Z,17.46
2018-09-03T23:46:00.558Z,17.39
2018-09-03T23:48:29.611Z,17.46
2018-09-03T23:50:58.632Z,17.38
2018-09-03T23:53:28.247Z,17.45
2018-09-03T23:55:56.668Z,17.38
2018-09-03T23:58:26.078Z,17.44
